Time;durP1;ratioP1;P1;durP2;ratioP2;P2;SDS_P1;SDS_P2;PMS_P1;PMS_P2;Temp;Humidity;BMP_temperature;BMP_pressure;BME280_temperature;BME280_humidity;BME280_pressure;Samples;Min_cycle;Max_cycle;Signal;HPM_P1;HPM_P2
2022/10/26 00:02:11;;;;;;;2.67;2.20;;;12.70;92.40;;;;;;5065388;28;20478;-63
2022/10/26 00:04:38;;;;;;;2.70;1.90;;;12.70;92.50;;;;;;5066346;28;20910;-64
2022/10/26 00:07:04;;;;;;;4.03;1.90;;;12.70;92.30;;;;;;5054421;28;20432;-64
2022/10/26 00:09:31;;;;;;;5.20;2.10;;;12.70;92.20;;;;;;5062983;28;20909;-64
2022/10/26 00:11:58;;;;;;;2.22;1.80;;;12.70;92.20;;;;;;5059998;28;20424;-64
2022/10/26 00:14:25;;;;;;;3.85;2.00;;;12.70;92.20;;;;;;5061818;28;20993;-64
2022/10/26 00:16:52;;;;;;;2.22;1.90;;;12.70;92.00;;;;;;5064754;28;20432;-63
2022/10/26 00:19:20;;;;;;;3.08;2.25;;;12.70;92.10;;;;;;5057768;28;20444;-64
2022/10/26 00:21:47;;;;;;;5.38;2.20;;;12.80;92.10;;;;;;5067094;28;20815;-63
2022/10/26 00:24:14;;;;;;;3.70;2.20;;;12.70;92.10;;;;;;5068421;28;20422;-62
2022/10/26 00:26:41;;;;;;;4.93;2.20;;;12.80;92.00;;;;;;5048447;28;20437;-64
2022/10/26 00:29:10;;;;;;;4.05;1.90;;;12.80;92.00;;;;;;5059479;28;20434;-64
2022/10/26 00:31:36;;;;;;;2.60;1.83;;;12.80;91.90;;;;;;5061683;28;20409;-64
2022/10/26 00:34:03;;;;;;;3.70;2.00;;;12.80;91.80;;;;;;5067375;28;20913;-63
2022/10/26 00:36:31;;;;;;;2.40;2.00;;;12.80;91.90;;;;;;5065195;28;20917;-63
2022/10/26 00:38:58;;;;;;;4.32;2.00;;;12.80;91.80;;;;;;5069457;28;20432;-63
2022/10/26 00:41:29;;;;;;;2.60;1.90;;;12.80;91.90;;;;;;5070399;28;20415;-63
2022/10/26 00:43:56;;;;;;;2.85;1.88;;;12.80;91.80;;;;;;5067152;28;20438;-63
2022/10/26 00:46:26;;;;;;;4.57;2.00;;;12.80;91.70;;;;;;5057343;28;20417;-63
2022/10/26 00:48:58;;;;;;;3.88;2.08;;;12.80;91.60;;;;;;5068357;28;20434;-64
2022/10/26 00:51:31;;;;;;;5.07;2.17;;;12.80;91.70;;;;;;5063404;28;20419;-64
2022/10/26 00:54:00;;;;;;;2.85;2.00;;;12.80;91.70;;;;;;5067149;28;20435;-64
2022/10/26 00:56:28;;;;;;;6.13;2.10;;;12.80;91.70;;;;;;5056638;28;20419;-64
2022/10/26 00:58:56;;;;;;;4.70;2.20;;;12.90;91.70;;;;;;5074692;28;20430;-64
2022/10/26 01:01:22;;;;;;;2.80;2.10;;;12.80;91.80;;;;;;5070335;28;20797;-64
2022/10/26 01:03:49;;;;;;;3.60;2.22;;;12.80;91.80;;;;;;5069269;28;20938;-64
2022/10/26 01:06:16;;;;;;;3.75;2.00;;;12.80;91.90;;;;;;5059230;28;20420;-64
2022/10/26 01:08:43;;;;;;;3.42;1.90;;;12.80;92.00;;;;;;5063551;28;20427;-63
2022/10/26 01:11:12;;;;;;;3.28;1.77;;;12.90;91.90;;;;;;5062917;28;20431;-64
2022/10/26 01:13:40;;;;;;;4.88;2.00;;;12.90;91.90;;;;;;5067761;28;20435;-64
2022/10/26 01:16:42;;;;;;;4.47;2.40;;;12.90;91.90;;;;;;5068317;28;20454;-64
2022/10/26 01:19:44;;;;;;;2.88;1.90;;;12.90;91.80;;;;;;5055617;28;20985;-64
2022/10/26 01:22:17;;;;;;;5.50;2.20;;;12.90;91.90;;;;;;5060613;28;20460;-64
2022/10/26 01:24:59;;;;;;;2.35;1.77;;;12.90;91.80;;;;;;5069071;28;20430;-66
2022/10/26 01:27:33;;;;;;;5.15;2.10;;;12.90;91.90;;;;;;5065859;28;20416;-65
2022/10/26 01:30:17;;;;;;;5.45;2.08;;;12.90;91.90;;;;;;5078011;28;20427;-65
2022/10/26 01:32:51;;;;;;;3.72;1.90;;;12.90;91.90;;;;;;5062072;28;20925;-65
2022/10/26 01:35:22;;;;;;;5.55;2.05;;;12.90;91.90;;;;;;5067973;28;20431;-65
2022/10/26 01:37:57;;;;;;;3.80;1.80;;;13.00;91.90;;;;;;5069266;28;20429;-65
2022/10/26 01:40:29;;;;;;;5.50;1.90;;;13.00;91.80;;;;;;5072317;28;20789;-65
2022/10/26 01:42:59;;;;;;;4.20;2.10;;;13.00;91.80;;;;;;5065137;28;20821;-65
2022/10/26 01:45:29;;;;;;;4.82;2.20;;;13.00;91.90;;;;;;5067732;28;20922;-66
2022/10/26 01:47:58;;;;;;;4.38;2.00;;;13.00;91.80;;;;;;5067317;28;20435;-64
2022/10/26 01:50:25;;;;;;;2.28;1.77;;;13.00;91.80;;;;;;5054943;28;20413;-64
2022/10/26 01:52:53;;;;;;;4.63;2.60;;;13.00;91.80;;;;;;5061162;28;20426;-65
2022/10/26 01:55:41;;;;;;;3.45;2.00;;;13.10;91.70;;;;;;5068289;28;20431;-64
2022/10/26 01:58:31;;;;;;;3.97;1.90;;;13.00;91.80;;;;;;5068095;28;20431;-65
2022/10/26 02:01:09;;;;;;;4.82;2.20;;;13.10;91.90;;;;;;5053152;28;20771;-64
2022/10/26 02:03:44;;;;;;;3.58;2.00;;;13.10;92.00;;;;;;5054327;28;20423;-64
2022/10/26 02:06:19;;;;;;;4.55;2.10;;;13.10;92.10;;;;;;5055491;28;20415;-65
2022/10/26 02:09:12;;;;;;;3.67;1.95;;;13.10;91.90;;;;;;5058195;28;20442;-65
2022/10/26 02:11:42;;;;;;;6.10;1.95;;;13.10;91.80;;;;;;5066857;28;20424;-64
2022/10/26 02:14:17;;;;;;;2.60;1.90;;;13.10;91.80;;;;;;5067939;28;20926;-65
2022/10/26 02:16:53;;;;;;;5.47;2.55;;;13.10;91.80;;;;;;5066950;28;20502;-65
2022/10/26 02:19:32;;;;;;;3.85;2.05;;;13.10;91.90;;;;;;5065096;28;20435;-64
2022/10/26 02:22:05;;;;;;;4.10;2.10;;;13.10;91.90;;;;;;5060447;28;20472;-64
2022/10/26 02:24:34;;;;;;;4.40;1.92;;;13.10;91.90;;;;;;5056868;28;20443;-64
2022/10/26 02:27:04;;;;;;;5.80;2.10;;;13.10;91.90;;;;;;5067516;28;20415;-64
2022/10/26 02:29:33;;;;;;;3.13;1.80;;;13.10;91.80;;;;;;5055466;28;20435;-64
2022/10/26 02:32:03;;;;;;;5.85;2.45;;;13.10;91.90;;;;;;5066905;28;20420;-64
2022/10/26 02:34:32;;;;;;;4.38;2.08;;;13.20;92.10;;;;;;5065492;28;20435;-64
2022/10/26 02:37:02;;;;;;;5.15;1.83;;;13.10;91.90;;;;;;5059223;28;20417;-64
2022/10/26 02:39:33;;;;;;;4.20;1.60;;;13.20;92.10;;;;;;5063270;28;20431;-64
2022/10/26 02:42:02;;;;;;;4.20;1.90;;;13.20;92.00;;;;;;5066217;28;20447;-64
2022/10/26 02:44:32;;;;;;;3.75;2.20;;;13.20;92.00;;;;;;5067464;28;20411;-64
2022/10/26 02:47:01;;;;;;;3.97;2.10;;;13.20;92.00;;;;;;5066626;28;20812;-64
2022/10/26 02:49:29;;;;;;;3.35;1.90;;;13.20;91.90;;;;;;5059028;28;20433;-64
2022/10/26 02:52:03;;;;;;;2.97;1.58;;;13.20;92.10;;;;;;5052282;28;20422;-64
2022/10/26 02:54:35;;;;;;;4.47;2.20;;;13.20;92.10;;;;;;5067903;28;20438;-64
2022/10/26 02:57:08;;;;;;;2.63;1.70;;;13.20;92.10;;;;;;5067016;28;21100;-64
2022/10/26 02:59:40;;;;;;;5.00;2.20;;;13.20;92.30;;;;;;5064171;28;20435;-63
2022/10/26 03:02:08;;;;;;;6.18;2.13;;;13.20;92.30;;;;;;5056064;28;21257;-65
2022/10/26 03:04:36;;;;;;;5.10;2.20;;;13.20;92.70;;;;;;5066870;28;20438;-66
2022/10/26 03:07:02;;;;;;;4.15;1.65;;;13.20;92.40;;;;;;5067370;28;20430;-63
2022/10/26 03:09:29;;;;;;;3.90;2.20;;;13.30;92.30;;;;;;5059365;28;20440;-66
2022/10/26 03:11:56;;;;;;;2.63;1.90;;;13.30;92.30;;;;;;5065242;28;20423;-65
2022/10/26 03:14:23;;;;;;;2.80;1.80;;;13.30;92.40;;;;;;5066086;28;20412;-65
2022/10/26 03:16:49;;;;;;;5.72;2.40;;;13.30;92.20;;;;;;5067114;28;20901;-65
2022/10/26 03:19:18;;;;;;;4.30;2.25;;;13.30;92.10;;;;;;5064904;28;20931;-66
2022/10/26 03:21:44;;;;;;;2.92;2.40;;;13.30;92.10;;;;;;5066837;28;20893;-65
2022/10/26 03:24:11;;;;;;;4.25;2.53;;;13.40;92.10;;;;;;5065795;28;20427;-66
2022/10/26 03:26:38;;;;;;;5.88;2.30;;;13.40;92.10;;;;;;5067087;28;20408;-65
2022/10/26 03:29:05;;;;;;;3.90;2.45;;;13.40;92.10;;;;;;5062425;28;20427;-65
2022/10/26 03:31:31;;;;;;;4.85;2.30;;;13.40;92.10;;;;;;5062661;28;20451;-65
2022/10/26 03:33:58;;;;;;;3.97;2.33;;;13.40;92.10;;;;;;5061165;28;20427;-65
2022/10/26 03:36:26;;;;;;;3.35;2.00;;;13.40;92.10;;;;;;5055911;28;20425;-65
2022/10/26 03:38:53;;;;;;;5.78;2.15;;;13.40;92.00;;;;;;5065774;28;20442;-65
2022/10/26 03:41:20;;;;;;;3.67;2.50;;;13.50;91.90;;;;;;5060435;28;20415;-65
2022/10/26 03:43:47;;;;;;;4.97;2.40;;;13.50;91.90;;;;;;5067045;28;20415;-65
2022/10/26 03:46:14;;;;;;;3.92;2.00;;;13.50;91.80;;;;;;5067256;28;20411;-65
2022/10/26 03:48:41;;;;;;;4.53;2.00;;;13.60;91.80;;;;;;5064826;28;20465;-65
2022/10/26 03:51:08;;;;;;;4.68;1.90;;;13.60;91.90;;;;;;5073646;28;20435;-65
2022/10/26 03:53:36;;;;;;;4.03;2.17;;;13.60;91.90;;;;;;5066467;28;20424;-65
2022/10/26 03:56:03;;;;;;;3.85;2.10;;;13.60;91.80;;;;;;5067121;28;20432;-65
2022/10/26 03:58:30;;;;;;;3.40;1.90;;;13.70;91.70;;;;;;5063268;28;20431;-64
2022/10/26 04:00:56;;;;;;;3.45;1.98;;;13.70;91.60;;;;;;5067583;28;20416;-66
2022/10/26 04:03:23;;;;;;;4.93;2.10;;;13.80;91.70;;;;;;5066629;28;20432;-66
2022/10/26 04:05:50;;;;;;;3.83;1.80;;;13.70;91.70;;;;;;5067624;28;20792;-64
2022/10/26 04:08:17;;;;;;;5.55;3.03;;;13.70;91.80;;;;;;5062713;28;20822;-65
2022/10/26 04:10:46;;;;;;;4.22;1.80;;;13.80;91.80;;;;;;5067848;28;20904;-65
2022/10/26 04:13:13;;;;;;;5.10;2.00;;;13.80;91.90;;;;;;5058001;28;20438;-64
2022/10/26 04:15:39;;;;;;;3.35;2.00;;;13.80;92.00;;;;;;5071077;28;20435;-64
2022/10/26 04:18:06;;;;;;;3.33;1.95;;;13.80;92.10;;;;;;5062462;28;20438;-64
2022/10/26 04:20:35;;;;;;;4.32;1.90;;;13.80;92.20;;;;;;5073973;28;20428;-64
2022/10/26 04:23:04;;;;;;;2.25;1.80;;;13.80;92.30;;;;;;5069717;28;20427;-65
2022/10/26 04:25:31;;;;;;;3.10;2.00;;;13.80;92.40;;;;;;5057013;28;20429;-65
2022/10/26 04:27:59;;;;;;;3.25;1.98;;;13.80;92.50;;;;;;5069308;28;20419;-65
2022/10/26 04:30:26;;;;;;;4.22;2.10;;;13.80;92.50;;;;;;5070833;28;20758;-65
2022/10/26 04:32:53;;;;;;;6.15;2.20;;;13.90;92.60;;;;;;5067938;28;20801;-65
2022/10/26 04:35:20;;;;;;;3.70;1.70;;;13.80;92.60;;;;;;5065397;28;20624;-65
2022/10/26 04:37:46;;;;;;;2.45;1.80;;;13.90;92.60;;;;;;5060617;28;20929;-65
2022/10/26 04:40:13;;;;;;;3.53;2.00;;;13.90;92.80;;;;;;5068776;28;20422;-65
2022/10/26 04:42:41;;;;;;;5.30;1.97;;;13.80;92.80;;;;;;5070238;28;20419;-65
2022/10/26 04:45:11;;;;;;;3.38;1.70;;;13.80;93.00;;;;;;5069373;28;20936;-64
2022/10/26 04:47:38;;;;;;;4.25;2.10;;;13.90;93.00;;;;;;5063100;28;20429;-63
2022/10/26 04:50:05;;;;;;;4.00;2.00;;;13.90;93.00;;;;;;5073757;28;20521;-65
2022/10/26 04:52:32;;;;;;;3.20;2.00;;;13.90;93.10;;;;;;5070804;28;20506;-66
2022/10/26 04:54:59;;;;;;;6.07;2.23;;;13.90;93.10;;;;;;5070153;28;20993;-65
2022/10/26 04:57:25;;;;;;;4.53;1.93;;;13.90;93.20;;;;;;5069450;28;20442;-65
2022/10/26 04:59:52;;;;;;;5.37;2.30;;;13.90;93.10;;;;;;5069842;28;20511;-65
2022/10/26 05:02:20;;;;;;;4.80;2.38;;;13.90;93.00;;;;;;5064278;28;20421;-65
2022/10/26 05:04:48;;;;;;;5.28;2.50;;;13.90;93.00;;;;;;5060729;28;20463;-65
2022/10/26 05:07:15;;;;;;;3.23;2.00;;;13.90;93.10;;;;;;5059542;28;20414;-65
2022/10/26 05:09:41;;;;;;;3.33;1.93;;;14.00;93.10;;;;;;5067682;28;20420;-65
2022/10/26 05:12:08;;;;;;;4.70;2.10;;;14.00;93.10;;;;;;5065378;28;20433;-65
2022/10/26 05:14:35;;;;;;;3.40;2.20;;;14.00;93.20;;;;;;5063812;28;20521;-65
2022/10/26 05:17:01;;;;;;;3.05;2.20;;;14.00;93.30;;;;;;5064814;28;20424;-65
2022/10/26 05:19:30;;;;;;;3.00;2.03;;;14.00;93.20;;;;;;5057899;28;20422;-65
2022/10/26 05:21:56;;;;;;;4.13;2.22;;;14.00;93.30;;;;;;5069772;28;20423;-65
2022/10/26 05:24:23;;;;;;;5.28;2.00;;;14.10;93.30;;;;;;5067593;28;20432;-65
2022/10/26 05:26:50;;;;;;;5.43;2.38;;;14.00;93.30;;;;;;5062082;28;20412;-66
2022/10/26 05:29:16;;;;;;;3.67;2.00;;;14.00;93.40;;;;;;5069930;28;20893;-65
2022/10/26 05:31:43;;;;;;;2.83;2.10;;;14.00;93.40;;;;;;5068868;28;20427;-65
2022/10/26 05:34:10;;;;;;;3.72;2.10;;;14.00;93.60;;;;;;5058175;28;20417;-65
2022/10/26 05:36:38;;;;;;;3.55;2.38;;;14.00;93.50;;;;;;5050841;28;20942;-65
2022/10/26 05:39:05;;;;;;;4.97;2.22;;;14.00;93.60;;;;;;5062779;28;20416;-65
2022/10/26 05:41:32;;;;;;;5.40;2.38;;;14.00;93.60;;;;;;5068454;28;20431;-66
2022/10/26 05:43:58;;;;;;;3.03;2.10;;;14.10;93.40;;;;;;5066963;28;20912;-65
2022/10/26 05:46:25;;;;;;;3.97;2.20;;;14.10;93.20;;;;;;5067652;28;20418;-65
2022/10/26 05:48:52;;;;;;;3.58;2.08;;;14.10;93.20;;;;;;5064673;28;20432;-65
2022/10/26 05:51:18;;;;;;;3.80;2.20;;;14.10;93.60;;;;;;5056084;28;20899;-65
2022/10/26 05:53:47;;;;;;;3.83;2.15;;;14.00;93.10;;;;;;5064767;28;20423;-65
2022/10/26 05:56:20;;;;;;;3.45;2.05;;;14.00;93.20;;;;;;5055571;28;20439;-65
2022/10/26 05:58:47;;;;;;;3.92;2.40;;;14.10;93.00;;;;;;5065936;28;20414;-65
2022/10/26 06:01:27;;;;;;;3.92;2.40;;;14.10;92.80;;;;;;5068166;28;20435;-66
2022/10/26 06:04:06;;;;;;;4.10;2.22;;;14.20;92.80;;;;;;5060068;28;20420;-66
2022/10/26 06:06:38;;;;;;;3.97;2.30;;;14.20;92.80;;;;;;5067481;28;20450;-65
2022/10/26 06:09:09;;;;;;;4.97;2.33;;;14.20;92.60;;;;;;5069373;28;20411;-65
2022/10/26 06:11:37;;;;;;;4.28;2.10;;;14.20;92.40;;;;;;5064794;28;20783;-66
2022/10/26 06:14:04;;;;;;;3.17;2.10;;;14.20;92.40;;;;;;5052517;28;20428;-66
2022/10/26 06:16:40;;;;;;;3.53;2.00;;;14.20;92.50;;;;;;5066232;28;20436;-65
2022/10/26 06:19:17;;;;;;;2.35;1.80;;;14.20;92.50;;;;;;5063081;28;20440;-65
2022/10/26 06:21:56;;;;;;;3.38;2.05;;;14.20;92.50;;;;;;5054615;28;20504;-65
2022/10/26 06:24:36;;;;;;;4.90;2.00;;;14.20;92.70;;;;;;5064559;28;20432;-65
2022/10/26 06:27:12;;;;;;;3.20;2.10;;;14.10;92.80;;;;;;5063811;28;20442;-65
2022/10/26 06:29:49;;;;;;;3.75;2.15;;;14.10;92.90;;;;;;5067047;28;20523;-65
2022/10/26 06:32:17;;;;;;;5.13;2.40;;;14.10;93.00;;;;;;5061619;28;20427;-65
2022/10/26 06:34:47;;;;;;;4.00;2.30;;;14.10;93.10;;;;;;5061123;28;20439;-65
2022/10/26 06:37:14;;;;;;;4.37;2.20;;;14.10;93.20;;;;;;5052710;28;20454;-65
2022/10/26 06:39:46;;;;;;;4.72;2.60;;;14.00;93.40;;;;;;5061696;28;20431;-65
2022/10/26 06:42:13;;;;;;;3.63;1.90;;;14.10;93.80;;;;;;5066210;28;20447;-66
2022/10/26 06:44:41;;;;;;;2.45;1.90;;;14.00;93.90;;;;;;5068645;28;20411;-65
2022/10/26 06:47:12;;;;;;;3.38;2.35;;;14.10;94.00;;;;;;5066833;28;20435;-66
2022/10/26 06:49:48;;;;;;;4.53;2.70;;;14.00;94.50;;;;;;5057911;28;20810;-65
2022/10/26 06:52:19;;;;;;;5.30;2.57;;;13.90;95.00;;;;;;5054473;28;20450;-66
2022/10/26 06:54:51;;;;;;;3.58;2.50;;;13.90;95.50;;;;;;5068205;28;20408;-66
2022/10/26 06:57:19;;;;;;;5.35;2.70;;;13.80;96.00;;;;;;5092547;22;20441;-77
2022/10/26 06:59:50;;;;;;;5.07;2.80;;;13.70;96.10;;;;;;5066738;28;20430;-76
2022/10/26 07:02:17;;;;;;;4.00;3.30;;;13.70;96.80;;;;;;5064547;28;20530;-77
2022/10/26 07:04:44;;;;;;;5.18;2.92;;;13.60;96.80;;;;;;5068177;28;20439;-75
2022/10/26 07:07:14;;;;;;;5.55;3.00;;;13.60;96.90;;;;;;5059265;28;20516;-74
2022/10/26 07:09:40;;;;;;;5.95;3.30;;;13.60;97.10;;;;;;5052104;28;20431;-75
2022/10/26 07:12:09;;;;;;;4.60;2.65;;;13.60;97.30;;;;;;5057641;28;20448;-74
2022/10/26 07:14:35;;;;;;;4.75;3.17;;;13.50;97.50;;;;;;5050172;28;20425;-75
2022/10/26 07:17:05;;;;;;;3.38;3.05;;;13.50;97.30;;;;;;5046895;28;20436;-75
2022/10/26 07:19:31;;;;;;;5.18;3.20;;;13.60;97.20;;;;;;5047687;28;20791;-75
2022/10/26 07:21:59;;;;;;;6.00;3.60;;;13.50;97.30;;;;;;5038058;28;20442;-76
2022/10/26 07:24:25;;;;;;;5.45;3.20;;;13.60;97.20;;;;;;5047032;28;20457;-75
2022/10/26 07:26:54;;;;;;;5.28;3.00;;;13.60;97.10;;;;;;5040167;28;20435;-76
2022/10/26 07:29:22;;;;;;;6.55;3.50;;;13.60;97.10;;;;;;5050664;28;20421;-76
2022/10/26 07:31:49;;;;;;;3.58;2.90;;;13.60;97.40;;;;;;5046894;28;20436;-76
2022/10/26 07:34:16;;;;;;;4.53;3.05;;;13.70;97.20;;;;;;5048165;28;20429;-76
2022/10/26 07:36:42;;;;;;;4.82;3.17;;;13.70;97.00;;;;;;5043867;28;20944;-76
2022/10/26 07:39:09;;;;;;;5.85;3.10;;;13.70;97.20;;;;;;5046848;28;20436;-76
2022/10/26 07:41:36;;;;;;;6.75;3.40;;;13.70;97.50;;;;;;5047875;28;20444;-75
2022/10/26 07:44:03;;;;;;;6.50;3.30;;;13.70;97.10;;;;;;5053529;28;20440;-77
2022/10/26 07:46:31;;;;;;;6.27;3.60;;;13.80;97.00;;;;;;5050336;28;20433;-75
2022/10/26 07:48:58;;;;;;;5.45;3.58;;;13.80;97.00;;;;;;5051534;28;20437;-75
2022/10/26 07:51:25;;;;;;;4.22;3.38;;;13.80;96.60;;;;;;5051625;28;20775;-75
2022/10/26 07:53:51;;;;;;;5.18;3.40;;;13.80;96.60;;;;;;5051586;28;20444;-76
2022/10/26 07:56:18;;;;;;;4.45;3.22;;;13.80;96.50;;;;;;5053447;28;20463;-77
2022/10/26 07:58:45;;;;;;;7.20;3.53;;;13.90;96.30;;;;;;5053877;28;20433;-75
2022/10/26 08:01:14;;;;;;;4.50;3.53;;;14.00;96.00;;;;;;5049951;28;20931;-75
2022/10/26 08:03:43;;;;;;;6.70;3.37;;;14.10;96.10;;;;;;5053326;28;20647;-75
2022/10/26 08:06:10;;;;;;;5.63;3.75;;;14.30;95.50;;;;;;5054249;28;20892;-76
2022/10/26 08:08:37;;;;;;;4.15;3.00;;;14.50;94.40;;;;;;5053480;28;20444;-75
2022/10/26 08:11:05;;;;;;;4.10;3.00;;;14.70;93.40;;;;;;5053241;28;20506;-75
2022/10/26 08:13:34;;;;;;;6.00;3.00;;;14.80;93.50;;;;;;5052363;28;20429;-75
2022/10/26 08:16:02;;;;;;;3.58;2.83;;;15.00;92.80;;;;;;5051937;28;20425;-76
2022/10/26 08:18:29;;;;;;;5.43;3.03;;;15.20;91.80;;;;;;5053952;28;20431;-76
2022/10/26 08:21:02;;;;;;;4.88;3.15;;;15.30;91.90;;;;;;5052004;28;20440;-76
2022/10/26 08:23:29;;;;;;;4.80;3.13;;;15.40;91.60;;;;;;5050145;28;20425;-77
2022/10/26 08:25:58;;;;;;;4.20;2.50;;;15.50;91.20;;;;;;5043777;28;20432;-76
2022/10/26 08:28:25;;;;;;;4.05;2.80;;;15.70;90.70;;;;;;5047573;28;20425;-76
2022/10/26 08:30:52;;;;;;;5.50;2.85;;;15.90;90.10;;;;;;5048713;28;21305;-77
2022/10/26 08:33:18;;;;;;;3.92;2.70;;;16.10;88.70;;;;;;5051308;28;20435;-76
2022/10/26 08:35:45;;;;;;;5.72;2.50;;;16.30;87.70;;;;;;5048722;28;20428;-77
2022/10/26 08:38:13;;;;;;;4.47;2.50;;;16.50;86.70;;;;;;5051455;28;20448;-77
2022/10/26 08:40:42;;;;;;;4.20;2.53;;;16.50;85.70;;;;;;5050939;28;20435;-77
2022/10/26 08:43:16;;;;;;;4.35;2.22;;;16.60;85.50;;;;;;5054790;28;20425;-76
2022/10/26 08:45:48;;;;;;;5.13;2.72;;;16.70;85.00;;;;;;5064312;28;20440;-77
2022/10/26 08:48:18;;;;;;;5.28;2.78;;;16.80;84.80;;;;;;5054442;28;20928;-75
2022/10/26 08:50:50;;;;;;;4.07;2.13;;;16.70;85.30;;;;;;5074989;28;20539;-76
2022/10/26 08:53:24;;;;;;;4.15;2.25;;;16.70;83.90;;;;;;5047531;28;20440;-74
2022/10/26 08:55:54;;;;;;;5.60;2.77;;;16.70;84.40;;;;;;5065997;28;20433;-75
2022/10/26 08:58:25;;;;;;;3.53;2.00;;;16.60;83.80;;;;;;5059136;28;20445;-76
2022/10/26 09:00:53;;;;;;;3.95;2.30;;;16.60;83.60;;;;;;5053470;28;20433;-77
2022/10/26 09:03:19;;;;;;;4.50;2.08;;;16.50;83.60;;;;;;5050877;28;20448;-76
2022/10/26 09:06:18;;;;;;;4.75;2.47;;;16.50;84.40;;;;;;5048678;28;20442;-76
2022/10/26 09:08:57;;;;;;;4.95;2.30;;;16.40;84.10;;;;;;5044392;28;20429;-77
2022/10/26 09:11:46;;;;;;;3.30;2.60;;;16.40;84.00;;;;;;5045825;28;20433;-76
2022/10/26 09:14:20;;;;;;;4.18;2.15;;;16.30;84.00;;;;;;5044500;28;20429;-76
2022/10/26 09:17:02;;;;;;;4.93;2.25;;;16.30;84.50;;;;;;5047578;28;20440;-78
2022/10/26 09:19:51;;;;;;;3.45;2.10;;;16.30;84.40;;;;;;5051674;28;20440;-77
2022/10/26 09:22:26;;;;;;;6.63;2.45;;;16.30;84.10;;;;;;5043444;28;20420;-74
2022/10/26 09:24:56;;;;;;;2.80;2.10;;;16.30;84.60;;;;;;5044696;28;20440;-76
2022/10/26 09:27:27;;;;;;;2.83;2.10;;;16.40;84.20;;;;;;5051996;28;20417;-76
2022/10/26 09:29:55;;;;;;;4.20;2.33;;;16.70;84.00;;;;;;5050739;28;20498;-76
2022/10/26 09:32:29;;;;;;;3.92;2.60;;;17.10;83.10;;;;;;5049922;28;20433;-76
2022/10/26 09:35:01;;;;;;;3.80;2.20;;;17.50;80.00;;;;;;5052992;28;20429;-77
2022/10/26 09:37:32;;;;;;;3.85;2.60;;;17.80;79.00;;;;;;5047432;28;20437;-75
2022/10/26 09:40:08;;;;;;;4.23;3.10;;;18.00;78.80;;;;;;5049170;28;20429;-77
2022/10/26 09:42:42;;;;;;;3.38;2.40;;;18.30;76.30;;;;;;5050806;28;20827;-75
2022/10/26 09:45:16;;;;;;;3.80;2.58;;;18.70;75.60;;;;;;5044241;28;20440;-76
2022/10/26 09:47:47;;;;;;;5.10;2.20;;;19.10;74.20;;;;;;5046641;28;20905;-76
2022/10/26 09:50:20;;;;;;;2.78;2.00;;;19.40;72.40;;;;;;5044869;28;20437;-79
2022/10/26 09:52:47;;;;;;;2.58;2.20;;;19.70;71.00;;;;;;5048181;28;20465;-78
2022/10/26 09:55:15;;;;;;;6.10;2.37;;;19.90;70.60;;;;;;5044654;28;20421;-77
2022/10/26 09:57:45;;;;;;;3.33;2.13;;;20.20;69.40;;;;;;5050348;28;20498;-77
2022/10/26 10:00:16;;;;;;;5.03;2.13;;;20.30;68.20;;;;;;5046732;28;20443;-64
2022/10/26 10:02:44;;;;;;;4.72;2.50;;;20.50;67.80;;;;;;5060506;28;20421;-63
2022/10/26 10:05:33;;;;;;;3.10;2.20;;;20.70;67.10;;;;;;5054966;28;20426;-63
2022/10/26 10:08:11;;;;;;;4.97;2.15;;;20.90;66.00;;;;;;5044519;28;20432;-63
2022/10/26 10:10:53;;;;;;;4.20;1.90;;;21.20;65.50;;;;;;5049011;28;20461;-64
2022/10/26 10:13:21;;;;;;;2.92;1.60;;;21.40;65.00;;;;;;5045290;28;20437;-64
2022/10/26 10:15:53;;;;;;;5.07;2.28;;;21.70;63.70;;;;;;5042239;28;20431;-61
2022/10/26 10:18:21;;;;;;;3.87;2.00;;;21.60;64.10;;;;;;5039757;28;20923;-64
2022/10/26 10:20:55;;;;;;;4.78;1.90;;;21.60;64.00;;;;;;5036077;28;20474;-64
2022/10/26 10:23:28;;;;;;;3.88;1.67;;;21.90;62.70;;;;;;5041792;28;20421;-62
2022/10/26 10:26:02;;;;;;;5.20;2.15;;;22.00;62.10;;;;;;5037116;28;20524;-63
2022/10/26 10:28:29;;;;;;;3.65;2.08;;;22.30;61.50;;;;;;5044840;28;20870;-63
2022/10/26 10:30:59;;;;;;;5.00;2.20;;;22.50;61.70;;;;;;5041366;28;20427;-63
2022/10/26 10:33:37;;;;;;;3.08;1.90;;;22.50;61.10;;;;;;5044836;28;20448;-62
2022/10/26 10:36:07;;;;;;;3.20;1.90;;;22.60;60.90;;;;;;5044983;28;20436;-62
2022/10/26 10:38:38;;;;;;;4.30;2.10;;;22.70;60.30;;;;;;5044112;28;20437;-62
2022/10/26 10:41:16;;;;;;;4.70;1.90;;;22.70;59.80;;;;;;5049886;28;20433;-63
2022/10/26 10:43:47;;;;;;;4.95;2.20;;;23.00;58.70;;;;;;5045090;28;20437;-64
2022/10/26 10:46:19;;;;;;;2.63;1.80;;;23.10;59.00;;;;;;5050841;28;20405;-64
2022/10/26 10:48:53;;;;;;;3.70;1.70;;;23.20;58.70;;;;;;5043371;28;20429;-63
2022/10/26 10:51:23;;;;;;;3.65;1.80;;;23.40;57.60;;;;;;5053347;28;20417;-62
2022/10/26 10:53:52;;;;;;;4.25;1.83;;;23.40;57.90;;;;;;5068433;28;20416;-62
2022/10/26 10:56:33;;;;;;;2.58;1.85;;;23.50;57.20;;;;;;5054993;28;20429;-64
2022/10/26 10:59:28;;;;;;;4.78;2.58;;;23.60;57.50;;;;;;5071247;28;21212;-65
2022/10/26 11:02:16;;;;;;;4.78;1.90;;;23.90;58.00;;;;;;5040382;28;20432;-64
2022/10/26 11:05:04;;;;;;;4.38;2.08;;;24.00;56.90;;;;;;5038279;28;20432;-63
2022/10/26 11:07:35;;;;;;;3.00;1.70;;;24.10;56.90;;;;;;5037731;28;20449;-63
2022/10/26 11:10:03;;;;;;;3.42;1.60;;;24.20;57.30;;;;;;5037752;28;20437;-62
2022/10/26 11:12:36;;;;;;;5.47;2.10;;;24.40;55.50;;;;;;5044689;28;20433;-63
2022/10/26 11:15:07;;;;;;;2.55;1.80;;;24.50;54.90;;;;;;5039954;28;20431;-63
2022/10/26 11:17:40;;;;;;;3.03;2.10;;;24.20;55.40;;;;;;5037678;28;20425;-63
2022/10/26 11:20:15;;;;;;;4.03;2.00;;;24.10;56.40;;;;;;5036758;28;20437;-63
2022/10/26 11:22:46;;;;;;;6.28;2.10;;;23.90;56.70;;;;;;5040138;28;20436;-63
2022/10/26 11:25:18;;;;;;;4.85;4.35;;;23.80;56.90;;;;;;5037984;28;20448;-64
2022/10/26 11:27:50;;;;;;;6.13;2.10;;;23.90;57.10;;;;;;5038035;28;20440;-64
2022/10/26 11:30:20;;;;;;;2.65;1.85;;;24.00;56.20;;;;;;5038367;28;20926;-63
2022/10/26 11:32:53;;;;;;;4.50;2.05;;;23.90;57.20;;;;;;5041287;28;20442;-62
2022/10/26 11:35:25;;;;;;;3.13;1.40;;;23.70;56.70;;;;;;5045429;28;20433;-64
2022/10/26 11:37:56;;;;;;;2.63;1.20;;;23.70;54.80;;;;;;5042005;28;20532;-64
2022/10/26 11:40:29;;;;;;;2.58;1.20;;;23.80;54.40;;;;;;5047696;28;20437;-63
2022/10/26 11:43:06;;;;;;;2.47;1.08;;;23.90;53.70;;;;;;5041764;28;20921;-63
2022/10/26 11:45:37;;;;;;;2.30;1.40;;;23.80;53.70;;;;;;5044031;28;20433;-63
2022/10/26 11:48:12;;;;;;;2.40;1.80;;;23.90;54.40;;;;;;5046059;28;20807;-63
2022/10/26 11:50:43;;;;;;;2.65;1.40;;;24.00;52.90;;;;;;5045589;28;20433;-63
2022/10/26 11:53:14;;;;;;;2.50;1.07;;;24.00;53.40;;;;;;5045652;28;20469;-64
2022/10/26 11:55:41;;;;;;;2.40;1.30;;;24.40;53.60;;;;;;5045531;28;20433;-62
2022/10/26 11:58:11;;;;;;;1.17;1.00;;;24.70;52.30;;;;;;5046302;28;20432;-62
2022/10/26 12:00:46;;;;;;;3.13;1.30;;;25.00;50.40;;;;;;5044030;28;20426;-65
2022/10/26 12:03:17;;;;;;;2.70;1.10;;;25.20;51.40;;;;;;5046241;28;20455;-63
2022/10/26 12:05:49;;;;;;;3.00;1.00;;;25.60;49.30;;;;;;5046160;28;20434;-64
2022/10/26 12:08:23;;;;;;;1.60;1.00;;;25.10;49.40;;;;;;5043956;28;20421;-64
2022/10/26 12:10:55;;;;;;;2.63;1.30;;;24.80;50.60;;;;;;5045554;28;20451;-62
2022/10/26 12:13:30;;;;;;;2.83;1.20;;;24.70;52.20;;;;;;5042915;28;20826;-65
2022/10/26 12:16:02;;;;;;;2.30;1.33;;;24.90;51.70;;;;;;5041962;28;20849;-65
2022/10/26 12:18:37;;;;;;;2.20;1.00;;;24.80;51.70;;;;;;5044335;28;20425;-63
2022/10/26 12:21:06;;;;;;;2.03;0.80;;;24.60;51.00;;;;;;5046801;28;20444;-62
2022/10/26 12:23:36;;;;;;;1.80;0.80;;;24.60;51.30;;;;;;5053858;28;20433;-63
2022/10/26 12:26:36;;;;;;;2.35;0.90;;;24.70;50.70;;;;;;5048727;28;20437;-62
2022/10/26 12:29:34;;;;;;;1.70;0.80;;;24.60;51.70;;;;;;5053550;28;20421;-64
2022/10/26 12:32:01;;;;;;;2.28;0.90;;;24.50;50.50;;;;;;5058011;28;20433;-62
2022/10/26 12:35:02;;;;;;;2.00;0.80;;;24.30;51.30;;;;;;5056077;28;20422;-62
2022/10/26 12:37:37;;;;;;;2.50;0.90;;;24.10;51.70;;;;;;5056499;28;20429;-62
2022/10/26 12:40:39;;;;;;;2.50;0.93;;;23.50;52.80;;;;;;5060299;28;20425;-62
2022/10/26 12:43:35;;;;;;;3.22;1.25;;;23.30;54.30;;;;;;5053662;28;20492;-63
2022/10/26 12:46:44;;;;;;;3.70;1.00;;;23.30;54.40;;;;;;5047940;28;20433;-62
2022/10/26 12:49:59;;;;;;;1.57;1.03;;;23.40;54.30;;;;;;5045533;28;20433;-64
2022/10/26 12:52:40;;;;;;;2.50;1.30;;;23.50;54.80;;;;;;5063536;28;20475;-64
2022/10/26 12:55:49;;;;;;;2.50;0.90;;;23.80;54.30;;;;;;5042056;28;21143;-63
2022/10/26 12:58:48;;;;;;;2.30;1.17;;;24.10;53.60;;;;;;5046656;28;20437;-63
2022/10/26 13:01:36;;;;;;;3.00;1.10;;;24.40;52.10;;;;;;5039649;28;20919;-64
2022/10/26 13:04:14;;;;;;;2.50;0.80;;;24.30;52.20;;;;;;5038590;28;20440;-62
2022/10/26 13:06:55;;;;;;;3.03;1.10;;;24.40;52.10;;;;;;5059793;22;20431;-64
2022/10/26 13:09:27;;;;;;;1.70;1.30;;;24.50;52.50;;;;;;5071332;28;20435;-65
2022/10/26 13:11:56;;;;;;;1.48;0.90;;;24.40;52.00;;;;;;5063732;28;20935;-65